createdAt,value
2023-02-19T00:00:05.947Z,2.10
2023-02-19T00:05:15.627Z,2.05
2023-02-19T00:10:19.344Z,2.03
2023-02-19T00:15:21.782Z,2.38
2023-02-19T00:20:24.241Z,1.92
2023-02-19T00:25:26.783Z,2.15
2023-02-19T00:30:29.389Z,2.53
2023-02-19T00:35:37.355Z,1.85
2023-02-19T00:40:40.017Z,2.33
2023-02-19T00:45:42.571Z,2.13
2023-02-19T00:50:45.015Z,3.20
2023-02-19T00:55:47.579Z,1.70
2023-02-19T01:00:50.086Z,2.47
2023-02-19T01:05:53.845Z,3.17
2023-02-19T01:10:56.395Z,2.90
2023-02-19T01:16:07.316Z,2.85
2023-02-19T01:21:14.623Z,4.45
2023-02-19T01:26:23.393Z,3.38
2023-02-19T01:31:26.077Z,2.28
2023-02-19T01:36:30.470Z,4.47
2023-02-19T01:41:36.524Z,3.15
2023-02-19T01:46:43.219Z,2.58
2023-02-19T01:51:49.696Z,3.58
2023-02-19T01:56:54.761Z,4.05
2023-02-19T02:01:57.362Z,2.63
2023-02-19T02:07:03.514Z,2.85
2023-02-19T02:12:06.248Z,2.63
2023-02-19T02:17:25.090Z,1.25
2023-02-19T02:22:53.800Z,1.58
2023-02-19T02:28:20.846Z,2.33
2023-02-19T02:33:36.671Z,1.83
2023-02-19T02:38:43.628Z,2.72
2023-02-19T02:43:46.931Z,2.42
2023-02-19T02:48:58.922Z,2.90
2023-02-19T02:54:26.163Z,2.53
2023-02-19T02:59:34.624Z,2.45
2023-02-19T03:05:14.785Z,2.97
2023-02-19T03:10:31.091Z,2.67
2023-02-19T03:16:03.272Z,2.08
2023-02-19T03:21:07.602Z,2.25
2023-02-19T03:26:15.346Z,2.10
2023-02-19T03:31:27.396Z,2.55
2023-02-19T03:36:43.217Z,2.08
2023-02-19T03:41:55.747Z,2.20
2023-02-19T03:47:11.436Z,4.00
2023-02-19T03:52:35.657Z,3.65
2023-02-19T03:57:47.688Z,2.90
2023-02-19T04:03:00.712Z,2.50
2023-02-19T04:08:16.120Z,4.25
2023-02-19T04:13:43.463Z,4.43
2023-02-19T04:18:50.230Z,4.55
2023-02-19T04:23:52.912Z,4.30
2023-02-19T04:28:55.451Z,4.13
2023-02-19T04:33:57.984Z,3.95
2023-02-19T04:39:00.780Z,3.92
2023-02-19T04:44:03.307Z,3.15
2023-02-19T04:49:05.789Z,4.70
2023-02-19T04:54:08.709Z,3.28
2023-02-19T04:59:11.130Z,3.55
2023-02-19T05:04:13.602Z,4.32
2023-02-19T05:09:16.212Z,4.22
2023-02-19T05:14:18.833Z,4.95
2023-02-19T05:19:21.411Z,5.47
2023-02-19T05:24:24.634Z,4.03
2023-02-19T05:29:27.206Z,5.00
2023-02-19T05:34:29.892Z,5.45
2023-02-19T05:39:32.392Z,4.72
2023-02-19T05:44:34.892Z,5.43
2023-02-19T05:49:37.446Z,5.07
2023-02-19T05:54:39.860Z,5.55
2023-02-19T05:59:42.357Z,5.10
2023-02-19T06:04:44.857Z,5.55
2023-02-19T06:09:51.081Z,5.97
2023-02-19T06:14:53.710Z,7.15
2023-02-19T06:19:56.254Z,6.32
2023-02-19T06:24:58.870Z,5.30
2023-02-19T06:30:01.512Z,6.25
2023-02-19T06:35:05.738Z,6.70
2023-02-19T06:40:08.799Z,7.85
2023-02-19T06:45:11.318Z,8.23
2023-02-19T06:50:13.919Z,7.70
2023-02-19T06:55:16.437Z,8.95
2023-02-19T07:00:19.074Z,8.25
2023-02-19T07:05:21.558Z,7.88
2023-02-19T07:10:23.992Z,8.20
2023-02-19T07:15:26.460Z,9.35
2023-02-19T07:20:28.885Z,7.78
2023-02-19T07:25:31.807Z,7.60
2023-02-19T07:30:34.675Z,5.80
2023-02-19T07:35:37.415Z,6.18
2023-02-19T07:40:39.843Z,5.53
2023-02-19T07:45:42.313Z,5.72
2023-02-19T07:50:53.165Z,5.35
2023-02-19T07:56:01.037Z,5.45
2023-02-19T08:01:20.124Z,5.57
2023-02-19T08:06:22.734Z,4.03
2023-02-19T08:11:43.483Z,4.10
2023-02-19T08:16:52.716Z,4.80
2023-02-19T08:21:55.283Z,5.20
2023-02-19T08:26:57.929Z,4.05
2023-02-19T08:32:00.561Z,5.53
2023-02-19T08:37:03.123Z,4.40
2023-02-19T08:42:05.785Z,4.63
2023-02-19T08:47:08.347Z,5.32
2023-02-19T08:52:10.853Z,5.20
2023-02-19T08:57:13.298Z,3.78
2023-02-19T09:02:17.066Z,4.15
2023-02-19T09:07:19.897Z,4.53
2023-02-19T09:12:22.500Z,4.32
2023-02-19T09:17:25.210Z,3.08
2023-02-19T09:22:27.725Z,3.55
2023-02-19T09:27:31.908Z,3.25
2023-02-19T09:32:34.417Z,4.40
2023-02-19T09:37:36.929Z,4.03
2023-02-19T09:42:42.413Z,3.30
2023-02-19T09:47:45.149Z,3.53
2023-02-19T09:52:55.122Z,3.67
2023-02-19T09:58:00.958Z,2.55
2023-02-19T10:03:31.965Z,2.72
2023-02-19T10:08:36.160Z,2.92
2023-02-19T10:13:48.314Z,3.67
2023-02-19T10:18:51.278Z,3.50
2023-02-19T10:24:01.766Z,3.60
2023-02-19T10:29:05.263Z,2.60
2023-02-19T10:34:19.183Z,2.85
2023-02-19T10:39:39.206Z,4.22
2023-02-19T10:44:47.755Z,1.90
2023-02-19T10:49:52.354Z,2.53
2023-02-19T10:55:14.832Z,2.72
2023-02-19T11:00:30.498Z,1.75
2023-02-19T11:05:35.211Z,2.53
2023-02-19T11:10:42.698Z,2.30
2023-02-19T11:15:53.408Z,2.10
2023-02-19T11:20:59.257Z,3.67
2023-02-19T11:26:07.584Z,2.90
2023-02-19T11:31:35.973Z,3.03
2023-02-19T11:36:39.133Z,2.38
2023-02-19T11:42:06.494Z,2.53
2023-02-19T11:47:33.724Z,2.17
2023-02-19T11:52:42.379Z,2.58
2023-02-19T11:57:48.956Z,2.53
2023-02-19T12:03:28.898Z,2.00
2023-02-19T12:08:31.320Z,2.50
2023-02-19T12:14:08.035Z,2.88
2023-02-19T12:19:56.563Z,3.50
2023-02-19T12:25:07.869Z,3.30
2023-02-19T12:30:28.655Z,2.70
2023-02-19T12:35:43.246Z,2.75
2023-02-19T12:40:58.022Z,2.85
2023-02-19T12:46:13.259Z,3.25
2023-02-19T12:51:58.985Z,2.88
2023-02-19T12:57:20.507Z,2.83
2023-02-19T13:02:50.977Z,2.45
2023-02-19T13:08:23.408Z,2.70
2023-02-19T13:13:42.289Z,2.28
2023-02-19T13:18:56.107Z,2.35
2023-02-19T13:23:58.855Z,2.75
2023-02-19T13:29:20.109Z,3.55
2023-02-19T13:35:01.159Z,3.28
2023-02-19T13:40:18.656Z,2.83
2023-02-19T13:45:43.937Z,2.33
2023-02-19T13:50:46.440Z,3.15
2023-02-19T13:55:53.197Z,2.60
2023-02-19T14:00:55.791Z,2.45
2023-02-19T14:06:06.662Z,2.42
2023-02-19T14:11:09.436Z,2.17
2023-02-19T14:16:35.142Z,3.63
2023-02-19T14:21:40.906Z,2.42
2023-02-19T14:26:43.848Z,1.92
2023-02-19T14:31:47.706Z,3.10
2023-02-19T14:36:55.791Z,3.05
2023-02-19T14:42:20.031Z,2.60
2023-02-19T14:47:24.972Z,2.78
2023-02-19T14:52:32.601Z,2.90
2023-02-19T14:57:45.925Z,2.70
2023-02-19T15:02:53.174Z,2.00
2023-02-19T15:07:59.890Z,2.03
2023-02-19T15:13:08.603Z,2.63
2023-02-19T15:18:35.920Z,2.92
2023-02-19T15:23:39.189Z,2.55
2023-02-19T15:28:41.724Z,2.50
2023-02-19T15:33:54.101Z,1.60
2023-02-19T15:38:59.948Z,1.90
2023-02-19T15:44:08.400Z,2.92
2023-02-19T15:49:21.140Z,2.83
2023-02-19T15:54:34.516Z,2.67
2023-02-19T15:59:42.564Z,3.08
2023-02-19T16:04:45.988Z,2.17
2023-02-19T16:09:48.553Z,3.25
2023-02-19T16:14:51.360Z,2.53
2023-02-19T16:20:03.694Z,2.05
2023-02-19T16:25:08.465Z,2.42
2023-02-19T16:30:28.357Z,3.50
2023-02-19T16:35:40.139Z,3.03
2023-02-19T16:41:06.643Z,4.15
2023-02-19T16:46:12.709Z,3.40
2023-02-19T16:51:27.765Z,4.50
2023-02-19T16:56:32.702Z,3.50
2023-02-19T17:01:37.281Z,4.10
2023-02-19T17:06:39.887Z,5.78
2023-02-19T17:11:44.119Z,4.07
2023-02-19T17:16:47.251Z,5.43
2023-02-19T17:21:51.761Z,5.07
2023-02-19T17:26:54.288Z,5.50
2023-02-19T17:31:57.001Z,4.28
2023-02-19T17:36:59.976Z,4.72
2023-02-19T17:42:06.351Z,4.75
2023-02-19T17:47:09.022Z,5.28
2023-02-19T17:52:12.583Z,4.63
2023-02-19T17:57:15.165Z,6.05
2023-02-19T18:02:17.683Z,5.30
2023-02-19T18:07:20.260Z,6.03
2023-02-19T18:12:22.830Z,6.13
2023-02-19T18:17:25.696Z,5.95
2023-02-19T18:22:28.238Z,6.70
2023-02-19T18:27:30.904Z,5.85
2023-02-19T18:32:33.443Z,6.07
2023-02-19T18:37:36.021Z,6.03
2023-02-19T18:42:39.437Z,6.10
2023-02-19T18:47:41.925Z,5.22
2023-02-19T18:52:44.985Z,6.53
2023-02-19T18:57:48.342Z,5.28
2023-02-19T19:02:51.654Z,5.45
2023-02-19T19:07:56.611Z,4.75
2023-02-19T19:12:59.240Z,5.05
2023-02-19T19:18:03.015Z,5.82
2023-02-19T19:23:06.846Z,6.68
2023-02-19T19:28:09.407Z,5.43
2023-02-19T19:33:12.113Z,5.47
2023-02-19T19:38:16.660Z,5.38
2023-02-19T19:43:19.186Z,4.55
2023-02-19T19:48:22.668Z,5.00
2023-02-19T19:53:25.260Z,5.80
2023-02-19T19:58:27.788Z,4.68
2023-02-19T20:03:31.719Z,6.20
2023-02-19T20:08:35.342Z,5.97
2023-02-19T20:13:37.898Z,4.40
2023-02-19T20:18:40.899Z,4.97
2023-02-19T20:23:43.445Z,4.15
2023-02-19T20:28:48.743Z,5.63
2023-02-19T20:33:52.039Z,4.80
2023-02-19T20:38:54.570Z,5.13
2023-02-19T20:43:57.436Z,6.40
2023-02-19T20:49:00.122Z,4.50
2023-02-19T20:54:02.705Z,5.75
2023-02-19T20:59:05.182Z,4.20
2023-02-19T21:04:07.991Z,3.75
2023-02-19T21:09:10.500Z,4.03
2023-02-19T21:14:13.032Z,4.68
2023-02-19T21:19:15.654Z,5.25
2023-02-19T21:24:18.277Z,5.03
2023-02-19T21:29:22.877Z,4.00
2023-02-19T21:34:28.062Z,5.63
2023-02-19T21:39:32.536Z,4.82
2023-02-19T21:44:35.176Z,5.40
2023-02-19T21:49:37.689Z,4.95
2023-02-19T21:54:40.080Z,5.43
2023-02-19T21:59:42.511Z,5.15
2023-02-19T22:04:44.987Z,5.63
2023-02-19T22:09:48.936Z,6.80
2023-02-19T22:14:52.899Z,5.30
2023-02-19T22:19:55.411Z,7.95
2023-02-19T22:24:57.960Z,6.70
2023-02-19T22:30:00.581Z,4.13
2023-02-19T22:35:03.101Z,7.65
2023-02-19T22:40:06.737Z,6.82
2023-02-19T22:45:11.871Z,6.07
2023-02-19T22:50:19.733Z,6.55
2023-02-19T22:55:22.505Z,7.72
2023-02-19T23:00:24.976Z,6.65
2023-02-19T23:05:27.466Z,5.57
2023-02-19T23:10:29.995Z,6.43
2023-02-19T23:15:32.527Z,6.85
2023-02-19T23:20:35.617Z,7.22
2023-02-19T23:25:38.045Z,7.70
2023-02-19T23:30:40.569Z,6.07
2023-02-19T23:35:43.100Z,6.90
2023-02-19T23:40:45.802Z,8.07
2023-02-19T23:45:48.403Z,7.55
2023-02-19T23:50:50.915Z,7.70
2023-02-19T23:55:53.364Z,5.57
